sensor_id;sensor_type;location;lat;lon;timestamp;temperature;humidity
46085;DHT22;31823;47.032;8.310;2024-03-08T00:00:09;-0.20;99.90
46085;DHT22;31823;47.032;8.310;2024-03-08T00:02:36;-0.30;99.90
46085;DHT22;31823;47.032;8.310;2024-03-08T00:05:04;-0.30;99.90
46085;DHT22;31823;47.032;8.310;2024-03-08T00:07:30;-0.30;99.90
46085;DHT22;31823;47.032;8.310;2024-03-08T00:09:55;-0.30;99.90
46085;DHT22;31823;47.032;8.310;2024-03-08T00:12:21;-0.40;99.90
46085;DHT22;31823;47.032;8.310;2024-03-08T00:14:46;-0.40;99.90
46085;DHT22;31823;47.032;8.310;2024-03-08T00:17:12;-0.30;99.90
46085;DHT22;31823;47.032;8.310;2024-03-08T00:19:37;-0.30;99.90
46085;DHT22;31823;47.032;8.310;2024-03-08T00:22:03;-0.30;99.90
46085;DHT22;31823;47.032;8.310;2024-03-08T00:24:29;-0.30;99.90
46085;DHT22;31823;47.032;8.310;2024-03-08T00:26:56;-0.30;99.90
46085;DHT22;31823;47.032;8.310;2024-03-08T00:29:21;-0.30;99.90
46085;DHT22;31823;47.032;8.310;2024-03-08T00:31:47;-0.30;99.90
46085;DHT22;31823;47.032;8.310;2024-03-08T00:34:13;-0.30;99.90
46085;DHT22;31823;47.032;8.310;2024-03-08T00:36:38;-0.30;99.90
46085;DHT22;31823;47.032;8.310;2024-03-08T00:39:04;-0.40;99.90
46085;DHT22;31823;47.032;8.310;2024-03-08T00:41:32;-0.30;99.90
46085;DHT22;31823;47.032;8.310;2024-03-08T00:43:58;-0.40;99.90
46085;DHT22;31823;47.032;8.310;2024-03-08T00:46:23;-0.40;99.90
46085;DHT22;31823;47.032;8.310;2024-03-08T00:48:49;-0.40;99.90
46085;DHT22;31823;47.032;8.310;2024-03-08T00:51:15;-0.40;99.90
46085;DHT22;31823;47.032;8.310;2024-03-08T00:53:41;-0.30;99.90
46085;DHT22;31823;47.032;8.310;2024-03-08T00:56:10;-0.30;99.90
46085;DHT22;31823;47.032;8.310;2024-03-08T00:58:38;-0.30;99.90
46085;DHT22;31823;47.032;8.310;2024-03-08T01:01:04;-0.40;99.90
46085;DHT22;31823;47.032;8.310;2024-03-08T01:03:30;-0.30;99.90
46085;DHT22;31823;47.032;8.310;2024-03-08T01:06:00;-0.40;99.90
46085;DHT22;31823;47.032;8.310;2024-03-08T01:08:28;-0.40;99.90
46085;DHT22;31823;47.032;8.310;2024-03-08T01:10:54;-0.40;99.90
46085;DHT22;31823;47.032;8.310;2024-03-08T01:13:19;-0.40;99.90
46085;DHT22;31823;47.032;8.310;2024-03-08T01:15:45;-0.40;99.90
46085;DHT22;31823;47.032;8.310;2024-03-08T01:18:11;-0.40;99.90
46085;DHT22;31823;47.032;8.310;2024-03-08T01:20:37;-0.50;99.90
46085;DHT22;31823;47.032;8.310;2024-03-08T01:23:02;-0.40;99.90
46085;DHT22;31823;47.032;8.310;2024-03-08T01:25:31;-0.40;99.90
46085;DHT22;31823;47.032;8.310;2024-03-08T01:27:57;-0.40;99.90
46085;DHT22;31823;47.032;8.310;2024-03-08T01:30:22;-0.40;99.90
46085;DHT22;31823;47.032;8.310;2024-03-08T01:32:48;-0.30;99.90
46085;DHT22;31823;47.032;8.310;2024-03-08T01:35:14;-0.30;99.90
46085;DHT22;31823;47.032;8.310;2024-03-08T01:37:39;-0.30;99.90
46085;DHT22;31823;47.032;8.310;2024-03-08T01:40:06;-0.30;99.90
46085;DHT22;31823;47.032;8.310;2024-03-08T01:42:34;-0.40;99.90
46085;DHT22;31823;47.032;8.310;2024-03-08T01:45:06;-0.40;99.90
46085;DHT22;31823;47.032;8.310;2024-03-08T01:47:32;-0.40;99.90
46085;DHT22;31823;47.032;8.310;2024-03-08T01:49:59;-0.30;99.90
46085;DHT22;31823;47.032;8.310;2024-03-08T01:52:28;-0.30;99.90
46085;DHT22;31823;47.032;8.310;2024-03-08T01:54:54;-0.40;99.90
46085;DHT22;31823;47.032;8.310;2024-03-08T01:57:20;-0.40;99.90
46085;DHT22;31823;47.032;8.310;2024-03-08T01:59:46;-0.40;99.90
46085;DHT22;31823;47.032;8.310;2024-03-08T02:02:14;-0.40;99.90
46085;DHT22;31823;47.032;8.310;2024-03-08T02:04:43;-0.40;99.90
46085;DHT22;31823;47.032;8.310;2024-03-08T02:07:09;-0.40;99.90
46085;DHT22;31823;47.032;8.310;2024-03-08T02:09:35;-0.40;99.90
46085;DHT22;31823;47.032;8.310;2024-03-08T02:12:01;-0.40;99.90
46085;DHT22;31823;47.032;8.310;2024-03-08T02:14:26;-0.30;99.90
46085;DHT22;31823;47.032;8.310;2024-03-08T02:16:52;-0.40;99.90
46085;DHT22;31823;47.032;8.310;2024-03-08T02:19:19;-0.40;99.90
46085;DHT22;31823;47.032;8.310;2024-03-08T02:21:46;-0.40;99.90
46085;DHT22;31823;47.032;8.310;2024-03-08T02:24:13;-0.40;99.90
46085;DHT22;31823;47.032;8.310;2024-03-08T02:26:38;-0.40;99.90
46085;DHT22;31823;47.032;8.310;2024-03-08T02:29:04;-0.50;99.90
46085;DHT22;31823;47.032;8.310;2024-03-08T02:31:30;-0.50;99.90
46085;DHT22;31823;47.032;8.310;2024-03-08T02:33:56;-0.50;99.90
46085;DHT22;31823;47.032;8.310;2024-03-08T02:36:22;-0.60;99.90
46085;DHT22;31823;47.032;8.310;2024-03-08T02:38:47;-0.60;99.90
46085;DHT22;31823;47.032;8.310;2024-03-08T02:41:13;-0.60;99.90
46085;DHT22;31823;47.032;8.310;2024-03-08T02:43:38;-0.70;99.90
46085;DHT22;31823;47.032;8.310;2024-03-08T02:46:04;-0.70;99.90
46085;DHT22;31823;47.032;8.310;2024-03-08T02:48:30;-0.70;99.90
46085;DHT22;31823;47.032;8.310;2024-03-08T02:50:56;-0.70;99.90
46085;DHT22;31823;47.032;8.310;2024-03-08T02:53:21;-0.70;99.90
46085;DHT22;31823;47.032;8.310;2024-03-08T02:55:47;-0.70;99.90
46085;DHT22;31823;47.032;8.310;2024-03-08T02:58:13;-0.70;99.90
46085;DHT22;31823;47.032;8.310;2024-03-08T03:00:40;-0.60;99.90
46085;DHT22;31823;47.032;8.310;2024-03-08T03:03:06;-0.50;99.90
46085;DHT22;31823;47.032;8.310;2024-03-08T03:05:32;-0.50;99.90
46085;DHT22;31823;47.032;8.310;2024-03-08T03:07:59;-0.50;99.90
46085;DHT22;31823;47.032;8.310;2024-03-08T03:10:25;-0.50;99.90
46085;DHT22;31823;47.032;8.310;2024-03-08T03:12:51;-0.50;99.90
46085;DHT22;31823;47.032;8.310;2024-03-08T03:15:17;-0.50;99.90
46085;DHT22;31823;47.032;8.310;2024-03-08T03:17:50;-0.40;99.90
46085;DHT22;31823;47.032;8.310;2024-03-08T03:20:19;-0.30;99.90
46085;DHT22;31823;47.032;8.310;2024-03-08T03:22:58;-0.30;99.90
46085;DHT22;31823;47.032;8.310;2024-03-08T03:25:26;-0.20;99.90
46085;DHT22;31823;47.032;8.310;2024-03-08T03:27:59;-0.20;99.90
46085;DHT22;31823;47.032;8.310;2024-03-08T03:30:25;0.00;99.90
46085;DHT22;31823;47.032;8.310;2024-03-08T03:32:53;0.00;99.90
46085;DHT22;31823;47.032;8.310;2024-03-08T03:35:20;0.00;99.90
46085;DHT22;31823;47.032;8.310;2024-03-08T03:37:47;0.10;99.90
46085;DHT22;31823;47.032;8.310;2024-03-08T03:40:32;0.10;99.90
46085;DHT22;31823;47.032;8.310;2024-03-08T03:42:58;0.10;99.90
46085;DHT22;31823;47.032;8.310;2024-03-08T03:45:24;0.10;99.90
46085;DHT22;31823;47.032;8.310;2024-03-08T03:47:50;0.10;99.90
46085;DHT22;31823;47.032;8.310;2024-03-08T03:50:17;0.10;99.90
46085;DHT22;31823;47.032;8.310;2024-03-08T03:52:45;0.20;99.90
46085;DHT22;31823;47.032;8.310;2024-03-08T03:55:10;0.10;99.90
46085;DHT22;31823;47.032;8.310;2024-03-08T03:57:37;0.10;99.90
46085;DHT22;31823;47.032;8.310;2024-03-08T04:00:04;0.20;99.90
46085;DHT22;31823;47.032;8.310;2024-03-08T04:02:30;0.20;99.90
46085;DHT22;31823;47.032;8.310;2024-03-08T04:04:55;0.20;99.90
46085;DHT22;31823;47.032;8.310;2024-03-08T04:07:21;0.20;99.90
46085;DHT22;31823;47.032;8.310;2024-03-08T04:09:47;0.20;99.90
46085;DHT22;31823;47.032;8.310;2024-03-08T04:12:12;0.20;99.90
46085;DHT22;31823;47.032;8.310;2024-03-08T04:14:41;0.20;99.90
46085;DHT22;31823;47.032;8.310;2024-03-08T04:17:07;0.30;99.90
46085;DHT22;31823;47.032;8.310;2024-03-08T04:19:35;0.20;99.90
46085;DHT22;31823;47.032;8.310;2024-03-08T04:22:01;0.30;99.90
46085;DHT22;31823;47.032;8.310;2024-03-08T04:24:27;0.30;99.90
46085;DHT22;31823;47.032;8.310;2024-03-08T04:26:53;0.30;99.90
46085;DHT22;31823;47.032;8.310;2024-03-08T04:29:19;0.40;99.90
46085;DHT22;31823;47.032;8.310;2024-03-08T04:31:44;0.40;99.90
46085;DHT22;31823;47.032;8.310;2024-03-08T04:34:10;0.30;99.90
46085;DHT22;31823;47.032;8.310;2024-03-08T04:36:36;0.40;99.90
46085;DHT22;31823;47.032;8.310;2024-03-08T04:39:02;0.50;99.90
46085;DHT22;31823;47.032;8.310;2024-03-08T04:41:28;0.50;99.90
46085;DHT22;31823;47.032;8.310;2024-03-08T04:43:56;0.50;99.90
46085;DHT22;31823;47.032;8.310;2024-03-08T04:46:23;0.60;99.90
46085;DHT22;31823;47.032;8.310;2024-03-08T04:48:49;0.50;99.90
46085;DHT22;31823;47.032;8.310;2024-03-08T04:51:14;0.50;99.90
46085;DHT22;31823;47.032;8.310;2024-03-08T04:53:41;0.50;99.90
46085;DHT22;31823;47.032;8.310;2024-03-08T04:56:07;0.50;99.90
46085;DHT22;31823;47.032;8.310;2024-03-08T04:58:35;0.40;99.90
46085;DHT22;31823;47.032;8.310;2024-03-08T05:01:01;0.40;99.90
46085;DHT22;31823;47.032;8.310;2024-03-08T05:03:27;0.40;99.90
46085;DHT22;31823;47.032;8.310;2024-03-08T05:05:53;0.40;99.90
46085;DHT22;31823;47.032;8.310;2024-03-08T05:08:18;0.40;99.90
46085;DHT22;31823;47.032;8.310;2024-03-08T05:10:45;0.50;99.90
46085;DHT22;31823;47.032;8.310;2024-03-08T05:13:10;0.50;99.90
46085;DHT22;31823;47.032;8.310;2024-03-08T05:15:36;0.50;99.90
46085;DHT22;31823;47.032;8.310;2024-03-08T05:18:02;0.50;99.90
46085;DHT22;31823;47.032;8.310;2024-03-08T05:20:27;0.50;99.90
46085;DHT22;31823;47.032;8.310;2024-03-08T05:22:53;0.50;99.90
46085;DHT22;31823;47.032;8.310;2024-03-08T05:25:18;0.50;99.90
46085;DHT22;31823;47.032;8.310;2024-03-08T05:27:44;0.50;99.90
46085;DHT22;31823;47.032;8.310;2024-03-08T05:30:10;0.60;99.90
46085;DHT22;31823;47.032;8.310;2024-03-08T05:32:41;0.60;99.90
46085;DHT22;31823;47.032;8.310;2024-03-08T05:35:10;0.60;99.90
46085;DHT22;31823;47.032;8.310;2024-03-08T05:37:37;0.60;99.90
46085;DHT22;31823;47.032;8.310;2024-03-08T05:40:04;0.60;99.90
46085;DHT22;31823;47.032;8.310;2024-03-08T05:42:34;0.70;99.90
46085;DHT22;31823;47.032;8.310;2024-03-08T05:45:00;0.70;99.90
46085;DHT22;31823;47.032;8.310;2024-03-08T05:47:26;0.70;99.90
46085;DHT22;31823;47.032;8.310;2024-03-08T05:49:52;0.70;99.90
46085;DHT22;31823;47.032;8.310;2024-03-08T05:52:19;0.70;99.90
46085;DHT22;31823;47.032;8.310;2024-03-08T05:54:44;0.70;99.90
46085;DHT22;31823;47.032;8.310;2024-03-08T05:57:11;0.70;99.90
46085;DHT22;31823;47.032;8.310;2024-03-08T05:59:36;0.80;99.90
46085;DHT22;31823;47.032;8.310;2024-03-08T06:02:02;0.80;99.90
46085;DHT22;31823;47.032;8.310;2024-03-08T06:04:28;0.80;99.90
46085;DHT22;31823;47.032;8.310;2024-03-08T06:06:54;0.80;99.90
46085;DHT22;31823;47.032;8.310;2024-03-08T06:09:22;0.80;99.90
46085;DHT22;31823;47.032;8.310;2024-03-08T06:11:49;0.90;99.90
46085;DHT22;31823;47.032;8.310;2024-03-08T06:14:14;0.90;99.90
46085;DHT22;31823;47.032;8.310;2024-03-08T06:16:46;0.80;99.90
46085;DHT22;31823;47.032;8.310;2024-03-08T06:19:13;0.90;99.90
46085;DHT22;31823;47.032;8.310;2024-03-08T06:21:39;0.90;99.90
46085;DHT22;31823;47.032;8.310;2024-03-08T06:24:05;0.90;99.90
46085;DHT22;31823;47.032;8.310;2024-03-08T06:26:30;0.90;99.90
46085;DHT22;31823;47.032;8.310;2024-03-08T06:28:57;0.90;99.90
46085;DHT22;31823;47.032;8.310;2024-03-08T06:31:23;0.90;99.90
46085;DHT22;31823;47.032;8.310;2024-03-08T06:33:48;1.00;99.90
46085;DHT22;31823;47.032;8.310;2024-03-08T06:36:18;1.00;99.90
46085;DHT22;31823;47.032;8.310;2024-03-08T06:38:49;1.10;99.90
46085;DHT22;31823;47.032;8.310;2024-03-08T06:41:15;1.10;99.90
46085;DHT22;31823;47.032;8.310;2024-03-08T06:43:45;1.20;99.90
46085;DHT22;31823;47.032;8.310;2024-03-08T06:46:12;1.20;99.90
46085;DHT22;31823;47.032;8.310;2024-03-08T06:48:38;1.20;99.90
46085;DHT22;31823;47.032;8.310;2024-03-08T06:51:04;1.20;99.90
46085;DHT22;31823;47.032;8.310;2024-03-08T06:53:31;1.20;99.90
46085;DHT22;31823;47.032;8.310;2024-03-08T06:55:57;1.20;99.90
46085;DHT22;31823;47.032;8.310;2024-03-08T06:58:23;1.30;99.90
46085;DHT22;31823;47.032;8.310;2024-03-08T07:00:49;1.30;99.90
46085;DHT22;31823;47.032;8.310;2024-03-08T07:03:18;1.30;99.90
46085;DHT22;31823;47.032;8.310;2024-03-08T07:05:44;1.40;99.90
46085;DHT22;31823;47.032;8.310;2024-03-08T07:08:10;1.40;99.90
46085;DHT22;31823;47.032;8.310;2024-03-08T07:10:35;1.40;99.90
46085;DHT22;31823;47.032;8.310;2024-03-08T07:13:03;1.50;99.90
46085;DHT22;31823;47.032;8.310;2024-03-08T07:15:28;1.40;99.90
46085;DHT22;31823;47.032;8.310;2024-03-08T07:17:54;1.50;99.90
46085;DHT22;31823;47.032;8.310;2024-03-08T07:20:20;1.50;99.90
46085;DHT22;31823;47.032;8.310;2024-03-08T07:22:47;1.60;99.90
46085;DHT22;31823;47.032;8.310;2024-03-08T07:25:13;1.70;99.90
46085;DHT22;31823;47.032;8.310;2024-03-08T07:27:55;1.60;99.90
46085;DHT22;31823;47.032;8.310;2024-03-08T07:30:23;1.60;99.90
46085;DHT22;31823;47.032;8.310;2024-03-08T07:33:07;1.60;99.90
46085;DHT22;31823;47.032;8.310;2024-03-08T07:35:37;1.80;99.90
46085;DHT22;31823;47.032;8.310;2024-03-08T07:38:06;1.70;99.90
46085;DHT22;31823;47.032;8.310;2024-03-08T07:40:36;1.80;99.90
46085;DHT22;31823;47.032;8.310;2024-03-08T07:43:04;1.80;99.90
46085;DHT22;31823;47.032;8.310;2024-03-08T07:45:30;1.90;99.90
46085;DHT22;31823;47.032;8.310;2024-03-08T07:47:56;1.90;99.90
46085;DHT22;31823;47.032;8.310;2024-03-08T07:50:22;1.90;99.90
46085;DHT22;31823;47.032;8.310;2024-03-08T07:52:48;1.90;99.90
46085;DHT22;31823;47.032;8.310;2024-03-08T07:55:13;1.90;99.90
46085;DHT22;31823;47.032;8.310;2024-03-08T07:57:40;1.90;99.90
46085;DHT22;31823;47.032;8.310;2024-03-08T08:00:06;1.90;99.90
46085;DHT22;31823;47.032;8.310;2024-03-08T08:02:34;2.00;99.90
46085;DHT22;31823;47.032;8.310;2024-03-08T08:05:00;2.00;99.90
46085;DHT22;31823;47.032;8.310;2024-03-08T08:07:26;2.00;99.90
46085;DHT22;31823;47.032;8.310;2024-03-08T08:09:53;2.10;99.90
46085;DHT22;31823;47.032;8.310;2024-03-08T08:12:19;2.20;99.90
46085;DHT22;31823;47.032;8.310;2024-03-08T08:14:44;2.10;99.90
46085;DHT22;31823;47.032;8.310;2024-03-08T08:17:10;2.10;99.90
46085;DHT22;31823;47.032;8.310;2024-03-08T08:19:37;2.10;99.90
46085;DHT22;31823;47.032;8.310;2024-03-08T08:22:03;2.10;99.90
46085;DHT22;31823;47.032;8.310;2024-03-08T08:24:29;2.20;99.90
46085;DHT22;31823;47.032;8.310;2024-03-08T08:26:55;2.20;99.90
46085;DHT22;31823;47.032;8.310;2024-03-08T08:29:21;2.30;99.90
46085;DHT22;31823;47.032;8.310;2024-03-08T08:31:48;2.40;99.90
46085;DHT22;31823;47.032;8.310;2024-03-08T08:34:16;2.50;99.90
46085;DHT22;31823;47.032;8.310;2024-03-08T08:36:42;2.50;99.90
46085;DHT22;31823;47.032;8.310;2024-03-08T08:39:08;2.50;99.90
46085;DHT22;31823;47.032;8.310;2024-03-08T08:41:39;2.40;99.90
46085;DHT22;31823;47.032;8.310;2024-03-08T08:44:07;2.40;99.90
46085;DHT22;31823;47.032;8.310;2024-03-08T08:46:36;2.40;99.90
46085;DHT22;31823;47.032;8.310;2024-03-08T08:49:03;2.40;99.90
46085;DHT22;31823;47.032;8.310;2024-03-08T08:51:28;2.40;99.90
46085;DHT22;31823;47.032;8.310;2024-03-08T08:53:54;2.40;99.90
46085;DHT22;31823;47.032;8.310;2024-03-08T08:56:21;2.40;99.90
46085;DHT22;31823;47.032;8.310;2024-03-08T08:58:47;2.40;99.90
46085;DHT22;31823;47.032;8.310;2024-03-08T09:01:14;2.40;99.90
46085;DHT22;31823;47.032;8.310;2024-03-08T09:03:40;2.40;99.90
46085;DHT22;31823;47.032;8.310;2024-03-08T09:06:09;2.50;99.90
46085;DHT22;31823;47.032;8.310;2024-03-08T09:08:41;2.30;99.90
46085;DHT22;31823;47.032;8.310;2024-03-08T09:11:07;2.40;99.90
46085;DHT22;31823;47.032;8.310;2024-03-08T09:13:33;2.30;99.90
46085;DHT22;31823;47.032;8.310;2024-03-08T09:16:05;2.50;99.90
46085;DHT22;31823;47.032;8.310;2024-03-08T09:18:31;2.50;99.90
46085;DHT22;31823;47.032;8.310;2024-03-08T09:21:00;2.50;99.90
46085;DHT22;31823;47.032;8.310;2024-03-08T09:23:26;2.50;99.90
46085;DHT22;31823;47.032;8.310;2024-03-08T09:25:56;2.50;99.90
46085;DHT22;31823;47.032;8.310;2024-03-08T09:28:23;2.40;99.90
46085;DHT22;31823;47.032;8.310;2024-03-08T09:30:49;2.40;99.90
46085;DHT22;31823;47.032;8.310;2024-03-08T09:33:14;2.40;99.90
46085;DHT22;31823;47.032;8.310;2024-03-08T09:35:45;2.40;99.90
46085;DHT22;31823;47.032;8.310;2024-03-08T09:38:12;2.60;99.90
46085;DHT22;31823;47.032;8.310;2024-03-08T09:40:41;2.60;99.90
46085;DHT22;31823;47.032;8.310;2024-03-08T09:43:06;2.70;99.90
46085;DHT22;31823;47.032;8.310;2024-03-08T09:45:36;2.80;99.90
46085;DHT22;31823;47.032;8.310;2024-03-08T09:48:02;2.80;99.90
46085;DHT22;31823;47.032;8.310;2024-03-08T09:50:28;2.70;99.90
46085;DHT22;31823;47.032;8.310;2024-03-08T09:52:55;2.80;99.90
46085;DHT22;31823;47.032;8.310;2024-03-08T09:55:22;2.80;99.90
46085;DHT22;31823;47.032;8.310;2024-03-08T09:57:49;2.80;99.90
46085;DHT22;31823;47.032;8.310;2024-03-08T10:00:33;2.70;99.90
46085;DHT22;31823;47.032;8.310;2024-03-08T10:03:02;2.80;99.90
46085;DHT22;31823;47.032;8.310;2024-03-08T10:05:30;2.90;99.90
46085;DHT22;31823;47.032;8.310;2024-03-08T10:07:58;3.00;99.90
46085;DHT22;31823;47.032;8.310;2024-03-08T10:10:24;3.00;99.90
46085;DHT22;31823;47.032;8.310;2024-03-08T10:12:49;3.10;99.90
46085;DHT22;31823;47.032;8.310;2024-03-08T10:15:16;3.10;99.90
46085;DHT22;31823;47.032;8.310;2024-03-08T10:17:45;3.00;99.90
46085;DHT22;31823;47.032;8.310;2024-03-08T10:20:18;3.10;99.90
46085;DHT22;31823;47.032;8.310;2024-03-08T10:22:44;3.30;99.90
46085;DHT22;31823;47.032;8.310;2024-03-08T10:25:11;3.30;99.90
46085;DHT22;31823;47.032;8.310;2024-03-08T10:27:38;3.30;99.90
46085;DHT22;31823;47.032;8.310;2024-03-08T10:30:06;3.30;99.90
46085;DHT22;31823;47.032;8.310;2024-03-08T10:32:34;3.30;99.90
46085;DHT22;31823;47.032;8.310;2024-03-08T10:34:59;3.40;99.90
46085;DHT22;31823;47.032;8.310;2024-03-08T10:37:25;3.30;99.90
46085;DHT22;31823;47.032;8.310;2024-03-08T10:40:02;3.40;99.90
46085;DHT22;31823;47.032;8.310;2024-03-08T10:45:31;3.20;99.90
46085;DHT22;31823;47.032;8.310;2024-03-08T10:48:31;3.20;99.90
46085;DHT22;31823;47.032;8.310;2024-03-08T10:50:58;3.40;99.90
46085;DHT22;31823;47.032;8.310;2024-03-08T10:53:27;3.40;99.90
46085;DHT22;31823;47.032;8.310;2024-03-08T10:55:56;3.30;99.90
46085;DHT22;31823;47.032;8.310;2024-03-08T10:58:27;3.40;99.90
46085;DHT22;31823;47.032;8.310;2024-03-08T11:00:56;3.50;99.90
46085;DHT22;31823;47.032;8.310;2024-03-08T11:06:17;3.80;99.90
46085;DHT22;31823;47.032;8.310;2024-03-08T11:08:44;4.00;99.90
46085;DHT22;31823;47.032;8.310;2024-03-08T11:11:31;3.80;99.90
46085;DHT22;31823;47.032;8.310;2024-03-08T11:13:58;3.90;99.90
46085;DHT22;31823;47.032;8.310;2024-03-08T11:21:36;4.10;99.90
46085;DHT22;31823;47.032;8.310;2024-03-08T11:24:13;4.20;99.90
46085;DHT22;31823;47.032;8.310;2024-03-08T11:26:39;4.00;99.90
46085;DHT22;31823;47.032;8.310;2024-03-08T11:32:04;4.00;99.90
46085;DHT22;31823;47.032;8.310;2024-03-08T11:34:31;3.80;99.90
46085;DHT22;31823;47.032;8.310;2024-03-08T11:36:58;3.60;99.90
46085;DHT22;31823;47.032;8.310;2024-03-08T11:39:24;3.90;99.90
46085;DHT22;31823;47.032;8.310;2024-03-08T11:41:50;4.20;99.90
46085;DHT22;31823;47.032;8.310;2024-03-08T11:44:17;4.20;99.90
46085;DHT22;31823;47.032;8.310;2024-03-08T11:46:43;4.10;99.90
46085;DHT22;31823;47.032;8.310;2024-03-08T11:49:13;4.10;99.90
46085;DHT22;31823;47.032;8.310;2024-03-08T11:51:39;3.90;99.90
46085;DHT22;31823;47.032;8.310;2024-03-08T11:54:06;4.00;99.90
46085;DHT22;31823;47.032;8.310;2024-03-08T11:56:37;4.20;99.90
46085;DHT22;31823;47.032;8.310;2024-03-08T11:59:03;4.20;99.90
46085;DHT22;31823;47.032;8.310;2024-03-08T12:01:28;4.70;99.90
46085;DHT22;31823;47.032;8.310;2024-03-08T12:03:55;4.80;99.90
46085;DHT22;31823;47.032;8.310;2024-03-08T12:06:24;4.50;99.90
46085;DHT22;31823;47.032;8.310;2024-03-08T12:08:50;4.50;99.90
46085;DHT22;31823;47.032;8.310;2024-03-08T12:11:17;5.20;99.90
46085;DHT22;31823;47.032;8.310;2024-03-08T12:13:48;5.30;99.90
46085;DHT22;31823;47.032;8.310;2024-03-08T12:16:19;5.40;99.90
46085;DHT22;31823;47.032;8.310;2024-03-08T12:18:47;5.50;99.90
46085;DHT22;31823;47.032;8.310;2024-03-08T12:21:14;5.50;99.90
46085;DHT22;31823;47.032;8.310;2024-03-08T12:23:44;5.60;99.90
46085;DHT22;31823;47.032;8.310;2024-03-08T12:26:17;5.40;99.90
46085;DHT22;31823;47.032;8.310;2024-03-08T12:28:45;5.40;99.90
46085;DHT22;31823;47.032;8.310;2024-03-08T12:31:14;5.90;99.90
46085;DHT22;31823;47.032;8.310;2024-03-08T12:33:52;5.50;99.90
46085;DHT22;31823;47.032;8.310;2024-03-08T12:36:19;5.20;99.90
46085;DHT22;31823;47.032;8.310;2024-03-08T12:38:48;5.30;99.90
46085;DHT22;31823;47.032;8.310;2024-03-08T12:41:17;5.40;99.90
46085;DHT22;31823;47.032;8.310;2024-03-08T12:43:44;5.70;99.90
46085;DHT22;31823;47.032;8.310;2024-03-08T12:46:19;5.70;99.90
46085;DHT22;31823;47.032;8.310;2024-03-08T12:48:48;6.10;99.90
46085;DHT22;31823;47.032;8.310;2024-03-08T12:51:14;7.20;99.90
46085;DHT22;31823;47.032;8.310;2024-03-08T12:53:41;8.70;99.90
46085;DHT22;31823;47.032;8.310;2024-03-08T12:56:09;10.30;99.90
46085;DHT22;31823;47.032;8.310;2024-03-08T12:58:36;9.70;99.90
46085;DHT22;31823;47.032;8.310;2024-03-08T13:01:02;8.50;99.90
46085;DHT22;31823;47.032;8.310;2024-03-08T13:03:30;6.90;99.90
46085;DHT22;31823;47.032;8.310;2024-03-08T13:05:57;7.40;99.90
46085;DHT22;31823;47.032;8.310;2024-03-08T13:08:22;7.90;99.90
46085;DHT22;31823;47.032;8.310;2024-03-08T13:10:50;7.70;99.90
46085;DHT22;31823;47.032;8.310;2024-03-08T13:13:16;8.60;99.90
46085;DHT22;31823;47.032;8.310;2024-03-08T13:15:42;10.30;98.10
46085;DHT22;31823;47.032;8.310;2024-03-08T13:18:08;10.30;97.50
46085;DHT22;31823;47.032;8.310;2024-03-08T13:20:35;12.00;95.60
46085;DHT22;31823;47.032;8.310;2024-03-08T13:23:03;13.40;94.30
46085;DHT22;31823;47.032;8.310;2024-03-08T13:25:33;12.90;94.00
46085;DHT22;31823;47.032;8.310;2024-03-08T13:27:58;13.10;92.10
46085;DHT22;31823;47.032;8.310;2024-03-08T13:30:26;12.00;94.60
46085;DHT22;31823;47.032;8.310;2024-03-08T13:32:55;12.30;93.80
46085;DHT22;31823;47.032;8.310;2024-03-08T13:35:20;13.90;91.90
46085;DHT22;31823;47.032;8.310;2024-03-08T13:37:55;14.60;92.40
46085;DHT22;31823;47.032;8.310;2024-03-08T13:40:21;15.00;91.70
46085;DHT22;31823;47.032;8.310;2024-03-08T13:42:47;13.60;90.80
46085;DHT22;31823;47.032;8.310;2024-03-08T13:45:14;14.40;90.40
46085;DHT22;31823;47.032;8.310;2024-03-08T13:47:48;15.00;88.20
46085;DHT22;31823;47.032;8.310;2024-03-08T13:50:14;14.30;91.60
46085;DHT22;31823;47.032;8.310;2024-03-08T13:52:50;12.90;93.30
46085;DHT22;31823;47.032;8.310;2024-03-08T13:55:19;12.90;92.60
46085;DHT22;31823;47.032;8.310;2024-03-08T13:57:45;12.30;94.40
46085;DHT22;31823;47.032;8.310;2024-03-08T14:00:12;12.10;93.60
46085;DHT22;31823;47.032;8.310;2024-03-08T14:02:38;11.90;93.40
46085;DHT22;31823;47.032;8.310;2024-03-08T14:05:07;11.00;95.80
46085;DHT22;31823;47.032;8.310;2024-03-08T14:07:37;10.40;97.20
46085;DHT22;31823;47.032;8.310;2024-03-08T14:10:03;8.80;99.90
46085;DHT22;31823;47.032;8.310;2024-03-08T14:12:29;8.60;99.90
46085;DHT22;31823;47.032;8.310;2024-03-08T14:14:55;9.00;99.90
46085;DHT22;31823;47.032;8.310;2024-03-08T14:17:25;9.30;99.90
46085;DHT22;31823;47.032;8.310;2024-03-08T14:19:52;9.10;99.90
46085;DHT22;31823;47.032;8.310;2024-03-08T14:22:18;8.60;99.90
46085;DHT22;31823;47.032;8.310;2024-03-08T14:24:44;8.60;99.90
46085;DHT22;31823;47.032;8.310;2024-03-08T14:27:10;8.50;99.90
46085;DHT22;31823;47.032;8.310;2024-03-08T14:29:37;8.50;99.90
46085;DHT22;31823;47.032;8.310;2024-03-08T14:32:04;8.60;99.90
46085;DHT22;31823;47.032;8.310;2024-03-08T14:34:34;8.10;99.90
46085;DHT22;31823;47.032;8.310;2024-03-08T14:37:00;7.90;99.90
46085;DHT22;31823;47.032;8.310;2024-03-08T14:39:26;7.70;99.90
46085;DHT22;31823;47.032;8.310;2024-03-08T14:41:57;8.00;99.90
46085;DHT22;31823;47.032;8.310;2024-03-08T14:44:23;9.00;99.90
46085;DHT22;31823;47.032;8.310;2024-03-08T14:46:52;8.80;99.90
46085;DHT22;31823;47.032;8.310;2024-03-08T14:49:18;8.50;99.90
46085;DHT22;31823;47.032;8.310;2024-03-08T14:51:44;8.00;99.90
46085;DHT22;31823;47.032;8.310;2024-03-08T14:54:10;8.00;99.90
46085;DHT22;31823;47.032;8.310;2024-03-08T14:56:36;7.90;99.90
46085;DHT22;31823;47.032;8.310;2024-03-08T14:59:02;7.90;99.90
46085;DHT22;31823;47.032;8.310;2024-03-08T15:01:30;8.50;99.90
46085;DHT22;31823;47.032;8.310;2024-03-08T15:03:58;9.20;99.90
46085;DHT22;31823;47.032;8.310;2024-03-08T15:06:40;9.20;99.90
46085;DHT22;31823;47.032;8.310;2024-03-08T15:09:05;8.70;99.90
46085;DHT22;31823;47.032;8.310;2024-03-08T15:11:51;8.70;99.90
46085;DHT22;31823;47.032;8.310;2024-03-08T15:14:17;8.10;99.90
46085;DHT22;31823;47.032;8.310;2024-03-08T15:16:45;8.50;99.90
46085;DHT22;31823;47.032;8.310;2024-03-08T15:19:13;8.50;99.90
46085;DHT22;31823;47.032;8.310;2024-03-08T15:21:40;8.40;99.90
46085;DHT22;31823;47.032;8.310;2024-03-08T15:24:08;7.90;99.90
46085;DHT22;31823;47.032;8.310;2024-03-08T15:26:41;7.60;99.90
46085;DHT22;31823;47.032;8.310;2024-03-08T15:29:06;7.80;99.90
46085;DHT22;31823;47.032;8.310;2024-03-08T15:31:32;8.20;99.90
46085;DHT22;31823;47.032;8.310;2024-03-08T15:33:59;8.30;99.90
46085;DHT22;31823;47.032;8.310;2024-03-08T15:36:32;8.30;99.90
46085;DHT22;31823;47.032;8.310;2024-03-08T15:38:59;8.30;99.90
46085;DHT22;31823;47.032;8.310;2024-03-08T15:41:25;8.40;99.90
46085;DHT22;31823;47.032;8.310;2024-03-08T15:43:52;8.30;99.90
46085;DHT22;31823;47.032;8.310;2024-03-08T15:46:18;8.20;99.90
46085;DHT22;31823;47.032;8.310;2024-03-08T15:48:48;8.40;99.90
46085;DHT22;31823;47.032;8.310;2024-03-08T15:51:15;8.40;99.90
46085;DHT22;31823;47.032;8.310;2024-03-08T15:53:43;8.40;99.90
46085;DHT22;31823;47.032;8.310;2024-03-08T15:56:29;8.10;99.90